MET'MAP v2.0
soon released !

Expected late october,
this new version will be
more efficient, smarter,
and hosted on a brand new
server x3 powerfull...
...and still free !


Not compatible ?
Try the mobile version !

LOG IN : | Subscribe | Disclaimer | Who is Orbifly ? |
ICAO code :
Legend : VFR Marginal VFR IFR Intensive IFR Very Intensive IFR
Visi :
Ceiling :
>= 8 km
>= 3000ft
5 to 8 km
1000 to 3000 ft
1500m to 5 km
500 to 1000 ft
800 to 1500m
200 to 500 ft
< 800m
< 200 ft

METAR - EGUN RAF Mildenhall - 27 May 2020 04:56 UTC
Data Sources :     NOAA   


- Airport Elevation : 33 ft
- IATA code : MHZ
- No reported NOTAMs.


EGUN - RAF Mildenhall

Latest METAR recorded : 2015/08/11 07:58 EGUN 110758Z AUTO 26002KT 9999 CLR 14/11 A3010 RMK AO2 SLP196 T01430110
TAF TAF EGUN
Valid from the 26 at 20:00 until the 28 at 02:00 UTC


262000Z 2620/2802 12006KT 9999 SCT030 QNH3055INS
BECMG 2702/2703 VRB06KT 9999 BKN030 QNH3054INS
BECMG 2713/2714 02012KT 9999 SCT050 QNH3052INS TX22/2715Z TN10/2704Z

Source NOAA


MET'MAP, your aeronautical weather chart ! - Copyright ORBIFLY December 2007

Programming & Development : Alexandra Zaïnal
Co-Developer : Marc-Olivier Méhu
Technical & hardware support : Manuel Goepfert
Concept & Financing : Baudouin d'Aumeries